📊 Raw Sensor Data

Showing records 33276 to 33300 of 84,764 total

ID Distance (ft) Battery V Battery A Int Temp (°F) Int Humid (%) Ext Temp (°F) Solar V RSSI SNR Time Stamp
51501 14.9 3.99 0 81 42 80 5.10 -74 7 09/09/2025 10:45 AM
51500 14.8 3.99 6 77 41 74 5.10 -75 8 09/09/2025 10:15 AM
51499 14.8 3.99 0 75 42 77 5.10 -75 8 09/09/2025 10:00 AM
51498 14.8 3.99 0 74 42 75 5.10 -75 8 09/09/2025 09:45 AM
51497 14.8 3.99 0 74 41 75 5.10 -74 8 09/09/2025 09:30 AM
51496 14.8 3.99 6 72 41 78 5.10 -75 7 09/09/2025 09:15 AM
51495 14.8 3.99 6 70 41 74 5.10 -74 8 09/09/2025 09:00 AM
51494 14.8 3.99 0 68 41 73 5.10 -74 8 09/09/2025 08:45 AM
51493 14.8 4.13 5 67 41 73 5.10 -74 8 09/09/2025 08:30 AM
51492 14.6 3.99 0 65 42 69 5.10 -74 8 09/09/2025 08:15 AM
51491 14.6 4.13 68 62 43 67 4.50 -74 8 09/09/2025 08:00 AM
51490 14.6 4.02 0 61 43 64 4.50 -75 8 09/09/2025 07:45 AM
51489 14.6 3.99 19 60 44 68 4.50 -75 8 09/09/2025 07:30 AM
51488 14.6 3.99 0 60 44 60 4.50 -74 8 09/09/2025 07:15 AM
51487 14.6 3.98 -6 60 44 61 4.50 -74 8 09/09/2025 07:00 AM
51486 14.6 3.91 -10 61 44 61 4.40 -75 8 09/09/2025 06:45 AM
51485 14.6 3.98 -5 61 44 62 0.80 -75 8 09/09/2025 06:30 AM
51484 14.6 3.98 -5 61 45 62 0.00 -75 8 09/09/2025 06:15 AM
51483 14.6 3.98 -5 62 45 63 0.00 -75 8 09/09/2025 06:00 AM
51482 14.6 3.98 -5 62 45 63 0.00 -74 8 09/09/2025 05:45 AM
51481 14.6 3.98 -5 63 45 63 0.00 -75 8 09/09/2025 05:30 AM
51480 14.6 3.93 -5 64 44 65 0.00 -75 8 09/09/2025 05:15 AM
51479 14.6 3.93 -5 64 44 64 0.00 -74 8 09/09/2025 05:00 AM
51478 14.6 3.93 -5 64 45 64 0.00 -75 8 09/09/2025 04:45 AM
51477 14.6 3.93 -5 65 45 65 0.00 -75 8 09/09/2025 04:30 AM